Phoenix, Arizona
Traffic Map
Current Weather Conditions
Phoenix, Arizona
Overcast
Overcast
65°
Feels Like: 65°
Wind Chill: 65° Ceiling: 21000
Heat Index: 65° Visibility: 10mi
Dew Point: 11° Wind: 6mph
Humidity: 12% Direction: 100° (E)
Pressure: 30.18in Gusts: 0mph
Raw Report DataKPHX 110351Z 10005KT 10SM BKN210 OVC250 18/M12 A3018 RMK AO2 SLP210 T01831117
Traffic Incident Summary
Active as of:
Severity:
Category:
InformationThere was an issue retrieving the traffic information for this location. Please try a different location or try again shortly.
Advertisements